sensor_id;sensor_type;location;lat;lon;timestamp;pressure;altitude;pressure_sealevel;temperature;humidity
47753;BME280;2038;51.728;6.674;2023-04-23T00:01:07;100148.56;;;11.01;100.00
47753;BME280;2038;51.728;6.674;2023-04-23T00:03:36;100148.31;;;10.96;100.00
47753;BME280;2038;51.728;6.674;2023-04-23T00:06:06;100143.16;;;10.95;100.00
47753;BME280;2038;51.728;6.674;2023-04-23T00:08:34;100144.72;;;10.93;100.00
47753;BME280;2038;51.728;6.674;2023-04-23T00:11:01;100140.50;;;10.93;100.00
47753;BME280;2038;51.728;6.674;2023-04-23T00:13:28;100136.81;;;10.88;100.00
47753;BME280;2038;51.728;6.674;2023-04-23T00:15:55;100135.09;;;10.87;100.00
47753;BME280;2038;51.728;6.674;2023-04-23T00:18:23;100129.13;;;10.87;100.00
47753;BME280;2038;51.728;6.674;2023-04-23T00:20:51;100135.00;;;10.86;100.00
47753;BME280;2038;51.728;6.674;2023-04-23T00:23:17;100136.03;;;10.89;100.00
47753;BME280;2038;51.728;6.674;2023-04-23T00:25:44;100134.22;;;10.87;100.00
47753;BME280;2038;51.728;6.674;2023-04-23T00:28:10;100131.56;;;10.85;100.00
47753;BME280;2038;51.728;6.674;2023-04-23T00:30:37;100140.97;;;10.86;100.00
47753;BME280;2038;51.728;6.674;2023-04-23T00:33:03;100140.00;;;10.84;100.00
47753;BME280;2038;51.728;6.674;2023-04-23T00:35:30;100136.66;;;10.85;100.00
47753;BME280;2038;51.728;6.674;2023-04-23T00:37:56;100128.88;;;10.82;100.00
47753;BME280;2038;51.728;6.674;2023-04-23T00:40:21;100127.88;;;10.80;100.00
47753;BME280;2038;51.728;6.674;2023-04-23T00:42:49;100133.00;;;10.80;100.00
47753;BME280;2038;51.728;6.674;2023-04-23T00:45:16;100133.88;;;10.80;100.00
47753;BME280;2038;51.728;6.674;2023-04-23T00:47:43;100127.09;;;10.81;100.00
47753;BME280;2038;51.728;6.674;2023-04-23T00:50:10;100120.72;;;10.73;100.00
47753;BME280;2038;51.728;6.674;2023-04-23T00:52:35;100125.28;;;10.78;100.00
47753;BME280;2038;51.728;6.674;2023-04-23T00:55:03;100120.97;;;10.77;100.00
47753;BME280;2038;51.728;6.674;2023-04-23T00:57:30;100127.84;;;10.78;100.00
47753;BME280;2038;51.728;6.674;2023-04-23T00:59:56;100130.19;;;10.75;100.00
47753;BME280;2038;51.728;6.674;2023-04-23T01:02:24;100120.97;;;10.77;100.00
47753;BME280;2038;51.728;6.674;2023-04-23T01:04:54;100122.53;;;10.75;100.00
47753;BME280;2038;51.728;6.674;2023-04-23T01:07:20;100126.69;;;10.73;100.00
47753;BME280;2038;51.728;6.674;2023-04-23T01:09:49;100130.13;;;10.74;100.00
47753;BME280;2038;51.728;6.674;2023-04-23T01:12:16;100124.00;;;10.70;100.00
47753;BME280;2038;51.728;6.674;2023-04-23T01:14:43;100130.13;;;10.74;100.00
47753;BME280;2038;51.728;6.674;2023-04-23T01:17:09;100123.00;;;10.68;100.00
47753;BME280;2038;51.728;6.674;2023-04-23T01:19:40;100122.75;;;10.64;100.00
47753;BME280;2038;51.728;6.674;2023-04-23T01:22:14;100112.31;;;10.59;100.00
47753;BME280;2038;51.728;6.674;2023-04-23T01:24:41;100124.88;;;10.71;100.00
47753;BME280;2038;51.728;6.674;2023-04-23T01:27:08;100113.28;;;10.61;100.00
47753;BME280;2038;51.728;6.674;2023-04-23T01:29:36;100111.19;;;10.54;100.00
47753;BME280;2038;51.728;6.674;2023-04-23T01:32:04;100103.47;;;10.53;100.00
47753;BME280;2038;51.728;6.674;2023-04-23T01:34:32;100109.75;;;10.59;100.00
47753;BME280;2038;51.728;6.674;2023-04-23T01:37:01;100104.84;;;10.62;100.00
47753;BME280;2038;51.728;6.674;2023-04-23T01:39:28;100111.53;;;10.60;100.00
47753;BME280;2038;51.728;6.674;2023-04-23T01:41:55;100104.63;;;10.43;100.00
47753;BME280;2038;51.728;6.674;2023-04-23T01:44:22;100111.16;;;10.38;100.00
47753;BME280;2038;51.728;6.674;2023-04-23T01:46:48;100111.84;;;10.36;100.00
47753;BME280;2038;51.728;6.674;2023-04-23T01:49:14;100113.84;;;10.41;100.00
47753;BME280;2038;51.728;6.674;2023-04-23T01:51:42;100107.78;;;10.39;100.00
47753;BME280;2038;51.728;6.674;2023-04-23T01:54:08;100105.16;;;10.38;100.00
47753;BME280;2038;51.728;6.674;2023-04-23T01:56:35;100110.25;;;10.38;100.00
47753;BME280;2038;51.728;6.674;2023-04-23T01:59:01;100110.88;;;10.33;100.00
47753;BME280;2038;51.728;6.674;2023-04-23T02:01:44;100111.34;;;10.26;100.00
47753;BME280;2038;51.728;6.674;2023-04-23T02:04:13;100111.25;;;10.25;100.00
47753;BME280;2038;51.728;6.674;2023-04-23T02:06:41;100105.81;;;10.19;100.00
47753;BME280;2038;51.728;6.674;2023-04-23T02:09:09;100107.75;;;10.23;100.00
47753;BME280;2038;51.728;6.674;2023-04-23T02:11:36;100097.56;;;10.23;100.00
47753;BME280;2038;51.728;6.674;2023-04-23T02:14:03;100103.50;;;10.23;100.00
47753;BME280;2038;51.728;6.674;2023-04-23T02:16:31;100092.28;;;10.20;100.00
47753;BME280;2038;51.728;6.674;2023-04-23T02:18:58;100081.47;;;10.24;100.00
47753;BME280;2038;51.728;6.674;2023-04-23T02:21:28;100079.03;;;10.25;100.00
47753;BME280;2038;51.728;6.674;2023-04-23T02:23:55;100084.38;;;10.30;100.00
47753;BME280;2038;51.728;6.674;2023-04-23T02:26:24;100083.75;;;10.34;100.00
47753;BME280;2038;51.728;6.674;2023-04-23T02:28:51;100081.63;;;10.42;100.00
47753;BME280;2038;51.728;6.674;2023-04-23T02:31:17;100083.59;;;10.47;100.00
47753;BME280;2038;51.728;6.674;2023-04-23T02:33:45;100077.03;;;10.51;100.00
47753;BME280;2038;51.728;6.674;2023-04-23T02:36:11;100080.69;;;10.56;100.00
47753;BME280;2038;51.728;6.674;2023-04-23T02:38:40;100077.34;;;10.57;100.00
47753;BME280;2038;51.728;6.674;2023-04-23T02:41:10;100071.38;;;10.56;100.00
47753;BME280;2038;51.728;6.674;2023-04-23T02:43:39;100078.06;;;10.54;100.00
47753;BME280;2038;51.728;6.674;2023-04-23T02:46:07;100074.56;;;10.52;100.00
47753;BME280;2038;51.728;6.674;2023-04-23T02:48:36;100069.41;;;10.51;100.00
47753;BME280;2038;51.728;6.674;2023-04-23T02:51:05;100074.50;;;10.51;100.00
47753;BME280;2038;51.728;6.674;2023-04-23T02:53:33;100069.56;;;10.54;100.00
47753;BME280;2038;51.728;6.674;2023-04-23T02:55:59;100082.28;;;10.54;100.00
47753;BME280;2038;51.728;6.674;2023-04-23T02:58:26;100077.19;;;10.54;100.00
47753;BME280;2038;51.728;6.674;2023-04-23T03:00:53;100078.97;;;10.55;100.00
47753;BME280;2038;51.728;6.674;2023-04-23T03:03:19;100071.31;;;10.55;100.00
47753;BME280;2038;51.728;6.674;2023-04-23T03:05:45;100072.81;;;10.67;100.00
47753;BME280;2038;51.728;6.674;2023-04-23T03:08:12;100077.06;;;10.67;100.00
47753;BME280;2038;51.728;6.674;2023-04-23T03:10:40;100076.44;;;10.71;100.00
47753;BME280;2038;51.728;6.674;2023-04-23T03:13:07;100066.16;;;10.69;100.00
47753;BME280;2038;51.728;6.674;2023-04-23T03:15:33;100070.38;;;10.69;100.00
47753;BME280;2038;51.728;6.674;2023-04-23T03:17:59;100065.28;;;10.69;100.00
47753;BME280;2038;51.728;6.674;2023-04-23T03:20:27;100063.75;;;10.72;100.00
47753;BME280;2038;51.728;6.674;2023-04-23T03:22:53;100068.97;;;10.74;100.00
47753;BME280;2038;51.728;6.674;2023-04-23T03:25:20;100067.09;;;10.71;100.00
47753;BME280;2038;51.728;6.674;2023-04-23T03:27:48;100071.50;;;10.74;100.00
47753;BME280;2038;51.728;6.674;2023-04-23T03:30:14;100068.22;;;10.76;100.00
47753;BME280;2038;51.728;6.674;2023-04-23T03:32:41;100063.72;;;10.71;100.00
47753;BME280;2038;51.728;6.674;2023-04-23T03:35:07;100067.81;;;10.69;100.00
47753;BME280;2038;51.728;6.674;2023-04-23T03:37:36;100065.03;;;10.64;100.00
47753;BME280;2038;51.728;6.674;2023-04-23T03:40:03;100063.91;;;10.59;100.00
47753;BME280;2038;51.728;6.674;2023-04-23T03:42:32;100061.13;;;10.55;100.00
47753;BME280;2038;51.728;6.674;2023-04-23T03:45:00;100053.44;;;10.39;100.00
47753;BME280;2038;51.728;6.674;2023-04-23T03:47:26;100053.09;;;10.32;100.00
47753;BME280;2038;51.728;6.674;2023-04-23T03:49:53;100044.66;;;10.33;100.00
47753;BME280;2038;51.728;6.674;2023-04-23T03:52:19;100045.44;;;10.32;100.00
47753;BME280;2038;51.728;6.674;2023-04-23T03:54:45;100046.97;;;10.29;100.00
47753;BME280;2038;51.728;6.674;2023-04-23T03:57:13;100046.97;;;10.29;100.00
47753;BME280;2038;51.728;6.674;2023-04-23T03:59:42;100036.50;;;10.24;100.00
47753;BME280;2038;51.728;6.674;2023-04-23T04:02:11;100041.72;;;10.26;100.00
47753;BME280;2038;51.728;6.674;2023-04-23T04:04:41;100038.38;;;10.27;100.00
47753;BME280;2038;51.728;6.674;2023-04-23T04:07:22;100033.97;;;10.24;100.00
47753;BME280;2038;51.728;6.674;2023-04-23T04:09:50;100041.53;;;10.23;100.00
47753;BME280;2038;51.728;6.674;2023-04-23T04:12:18;100034.59;;;10.20;100.00
47753;BME280;2038;51.728;6.674;2023-04-23T04:14:45;100030.06;;;10.15;100.00
47753;BME280;2038;51.728;6.674;2023-04-23T04:17:11;100036.69;;;10.13;100.00
47753;BME280;2038;51.728;6.674;2023-04-23T04:19:39;100029.84;;;10.12;100.00
47753;BME280;2038;51.728;6.674;2023-04-23T04:22:06;100031.59;;;10.13;100.00
47753;BME280;2038;51.728;6.674;2023-04-23T04:24:32;100030.81;;;10.14;100.00
47753;BME280;2038;51.728;6.674;2023-04-23T04:26:59;100039.31;;;10.14;100.00
47753;BME280;2038;51.728;6.674;2023-04-23T04:29:25;100037.06;;;10.19;100.00
47753;BME280;2038;51.728;6.674;2023-04-23T04:31:53;100043.84;;;10.18;100.00
47753;BME280;2038;51.728;6.674;2023-04-23T04:34:20;100040.47;;;10.19;100.00
47753;BME280;2038;51.728;6.674;2023-04-23T04:36:46;100045.56;;;10.19;100.00
47753;BME280;2038;51.728;6.674;2023-04-23T04:39:12;100043.00;;;10.19;100.00
47753;BME280;2038;51.728;6.674;2023-04-23T04:41:40;100040.56;;;10.21;100.00
47753;BME280;2038;51.728;6.674;2023-04-23T04:44:07;100039.78;;;10.22;100.00
47753;BME280;2038;51.728;6.674;2023-04-23T04:46:34;100033.09;;;10.24;100.00
47753;BME280;2038;51.728;6.674;2023-04-23T04:49:09;100041.72;;;10.26;100.00
47753;BME280;2038;51.728;6.674;2023-04-23T04:51:39;100040.09;;;10.28;100.00
47753;BME280;2038;51.728;6.674;2023-04-23T04:54:06;100040.91;;;10.27;100.00
47753;BME280;2038;51.728;6.674;2023-04-23T04:56:33;100043.53;;;10.28;100.00
47753;BME280;2038;51.728;6.674;2023-04-23T04:59:00;100037.91;;;10.34;100.00
47753;BME280;2038;51.728;6.674;2023-04-23T05:01:28;100043.25;;;10.39;100.00
47753;BME280;2038;51.728;6.674;2023-04-23T05:03:55;100040.25;;;10.46;100.00
47753;BME280;2038;51.728;6.674;2023-04-23T05:06:21;100040.66;;;10.53;100.00
47753;BME280;2038;51.728;6.674;2023-04-23T05:08:47;100043.84;;;10.65;100.00
47753;BME280;2038;51.728;6.674;2023-04-23T05:11:17;100047.06;;;10.77;100.00
47753;BME280;2038;51.728;6.674;2023-04-23T05:13:47;100037.41;;;10.88;100.00
47753;BME280;2038;51.728;6.674;2023-04-23T05:16:14;100041.88;;;11.08;100.00
47753;BME280;2038;51.728;6.674;2023-04-23T05:18:41;100041.00;;;11.24;100.00
47753;BME280;2038;51.728;6.674;2023-04-23T05:21:13;100038.03;;;11.33;100.00
47753;BME280;2038;51.728;6.674;2023-04-23T05:23:41;100042.59;;;11.38;100.00
47753;BME280;2038;51.728;6.674;2023-04-23T05:26:10;100045.69;;;11.33;100.00
47753;BME280;2038;51.728;6.674;2023-04-23T05:28:39;100044.56;;;11.27;100.00
47753;BME280;2038;51.728;6.674;2023-04-23T05:31:10;100047.44;;;11.34;100.00
47753;BME280;2038;51.728;6.674;2023-04-23T05:33:42;100038.28;;;11.37;100.00
47753;BME280;2038;51.728;6.674;2023-04-23T05:36:11;100041.84;;;11.41;100.00
47753;BME280;2038;51.728;6.674;2023-04-23T05:38:39;100035.22;;;11.44;100.00
47753;BME280;2038;51.728;6.674;2023-04-23T05:41:08;100042.16;;;11.47;100.00
47753;BME280;2038;51.728;6.674;2023-04-23T05:43:34;100040.50;;;11.47;100.00
47753;BME280;2038;51.728;6.674;2023-04-23T05:46:00;100035.53;;;11.50;100.00
47753;BME280;2038;51.728;6.674;2023-04-23T05:48:28;100040.22;;;11.59;100.00
47753;BME280;2038;51.728;6.674;2023-04-23T05:50:55;100037.03;;;11.63;100.00
47753;BME280;2038;51.728;6.674;2023-04-23T05:53:22;100045.94;;;11.71;100.00
47753;BME280;2038;51.728;6.674;2023-04-23T05:55:48;100048.91;;;11.79;100.00
47753;BME280;2038;51.728;6.674;2023-04-23T05:58:14;100040.88;;;11.89;100.00
47753;BME280;2038;51.728;6.674;2023-04-23T06:00:41;100053.63;;;11.89;100.00
47753;BME280;2038;51.728;6.674;2023-04-23T06:03:07;100042.44;;;12.03;100.00
47753;BME280;2038;51.728;6.674;2023-04-23T06:05:33;100042.72;;;12.09;100.00
47753;BME280;2038;51.728;6.674;2023-04-23T06:08:00;100044.91;;;12.19;100.00
47753;BME280;2038;51.728;6.674;2023-04-23T06:10:27;100045.50;;;12.31;100.00
47753;BME280;2038;51.728;6.674;2023-04-23T06:12:53;100041.41;;;12.35;100.00
47753;BME280;2038;51.728;6.674;2023-04-23T06:15:20;100035.00;;;12.44;100.00
47753;BME280;2038;51.728;6.674;2023-04-23T06:17:48;100044.00;;;12.54;100.00
47753;BME280;2038;51.728;6.674;2023-04-23T06:20:15;100040.09;;;12.62;100.00
47753;BME280;2038;51.728;6.674;2023-04-23T06:22:41;100040.44;;;12.70;100.00
47753;BME280;2038;51.728;6.674;2023-04-23T06:25:08;100039.69;;;12.72;100.00
47753;BME280;2038;51.728;6.674;2023-04-23T06:27:34;100046.72;;;12.76;100.00
47753;BME280;2038;51.728;6.674;2023-04-23T06:30:00;100039.25;;;12.81;100.00
47753;BME280;2038;51.728;6.674;2023-04-23T06:32:26;100036.56;;;12.78;100.00
47753;BME280;2038;51.728;6.674;2023-04-23T06:34:53;100030.66;;;12.79;100.00
47753;BME280;2038;51.728;6.674;2023-04-23T06:37:19;100033.06;;;12.76;100.00
47753;BME280;2038;51.728;6.674;2023-04-23T06:39:45;100032.53;;;12.83;100.00
47753;BME280;2038;51.728;6.674;2023-04-23T06:42:11;100030.22;;;12.89;100.00
47753;BME280;2038;51.728;6.674;2023-04-23T06:44:38;100025.28;;;12.92;100.00
47753;BME280;2038;51.728;6.674;2023-04-23T06:47:04;100017.19;;;13.02;100.00
47753;BME280;2038;51.728;6.674;2023-04-23T06:49:30;100013.31;;;13.10;100.00
47753;BME280;2038;51.728;6.674;2023-04-23T06:51:57;100016.31;;;13.21;100.00
47753;BME280;2038;51.728;6.674;2023-04-23T06:54:23;100012.59;;;13.33;100.00
47753;BME280;2038;51.728;6.674;2023-04-23T06:56:49;100019.69;;;13.39;100.00
47753;BME280;2038;51.728;6.674;2023-04-23T06:59:15;100015.47;;;13.41;100.00
47753;BME280;2038;51.728;6.674;2023-04-23T07:01:42;100016.47;;;13.44;100.00
47753;BME280;2038;51.728;6.674;2023-04-23T07:04:08;100023.00;;;13.57;100.00
47753;BME280;2038;51.728;6.674;2023-04-23T07:06:34;100017.19;;;13.61;100.00
47753;BME280;2038;51.728;6.674;2023-04-23T07:09:01;100014.06;;;13.68;100.00
47753;BME280;2038;51.728;6.674;2023-04-23T07:11:27;100012.69;;;13.76;100.00
47753;BME280;2038;51.728;6.674;2023-04-23T07:13:56;100007.72;;;13.79;100.00
47753;BME280;2038;51.728;6.674;2023-04-23T07:16:23;100007.34;;;13.91;100.00
47753;BME280;2038;51.728;6.674;2023-04-23T07:18:50;100005.75;;;13.94;100.00
47753;BME280;2038;51.728;6.674;2023-04-23T07:21:16;100004.38;;;14.02;100.00
47753;BME280;2038;51.728;6.674;2023-04-23T07:23:43;99998.44;;;14.03;100.00
47753;BME280;2038;51.728;6.674;2023-04-23T07:26:09;99994.53;;;14.13;100.00
47753;BME280;2038;51.728;6.674;2023-04-23T07:28:35;99990.97;;;14.10;100.00
47753;BME280;2038;51.728;6.674;2023-04-23T07:31:01;99991.41;;;14.20;100.00
47753;BME280;2038;51.728;6.674;2023-04-23T07:33:28;99996.28;;;14.35;100.00
47753;BME280;2038;51.728;6.674;2023-04-23T07:35:54;99987.09;;;14.40;100.00
47753;BME280;2038;51.728;6.674;2023-04-23T07:38:20;99984.63;;;14.43;100.00
47753;BME280;2038;51.728;6.674;2023-04-23T07:40:47;99984.91;;;14.50;100.00
47753;BME280;2038;51.728;6.674;2023-04-23T07:43:13;99985.91;;;14.54;100.00
47753;BME280;2038;51.728;6.674;2023-04-23T07:45:41;99989.50;;;14.59;100.00
47753;BME280;2038;51.728;6.674;2023-04-23T07:48:07;99992.28;;;14.65;100.00
47753;BME280;2038;51.728;6.674;2023-04-23T07:50:34;99987.84;;;14.61;100.00
47753;BME280;2038;51.728;6.674;2023-04-23T07:53:00;99987.22;;;14.67;100.00
47753;BME280;2038;51.728;6.674;2023-04-23T07:55:26;99983.19;;;14.73;100.00
47753;BME280;2038;51.728;6.674;2023-04-23T07:57:52;99976.53;;;14.78;100.00
47753;BME280;2038;51.728;6.674;2023-04-23T08:00:19;99989.69;;;14.87;100.00
47753;BME280;2038;51.728;6.674;2023-04-23T08:02:45;99981.47;;;14.96;100.00
47753;BME280;2038;51.728;6.674;2023-04-23T08:05:12;99981.56;;;14.99;100.00
47753;BME280;2038;51.728;6.674;2023-04-23T08:07:38;99984.03;;;14.96;100.00
47753;BME280;2038;51.728;6.674;2023-04-23T08:10:04;99979.88;;;14.99;100.00
47753;BME280;2038;51.728;6.674;2023-04-23T08:12:32;99977.34;;;15.01;100.00
47753;BME280;2038;51.728;6.674;2023-04-23T08:15:00;99973.19;;;15.05;100.00
47753;BME280;2038;51.728;6.674;2023-04-23T08:17:27;99975.09;;;15.10;100.00
47753;BME280;2038;51.728;6.674;2023-04-23T08:19:53;99978.66;;;15.14;100.00
47753;BME280;2038;51.728;6.674;2023-04-23T08:22:20;99974.47;;;15.17;100.00
47753;BME280;2038;51.728;6.674;2023-04-23T08:24:46;99971.19;;;15.21;100.00
47753;BME280;2038;51.728;6.674;2023-04-23T08:27:12;99963.56;;;15.23;100.00
47753;BME280;2038;51.728;6.674;2023-04-23T08:29:38;99961.31;;;15.32;100.00
47753;BME280;2038;51.728;6.674;2023-04-23T08:32:05;99967.59;;;15.40;100.00
47753;BME280;2038;51.728;6.674;2023-04-23T08:34:31;99972.81;;;15.43;100.00
47753;BME280;2038;51.728;6.674;2023-04-23T08:36:57;99973.97;;;15.51;100.00
47753;BME280;2038;51.728;6.674;2023-04-23T08:39:23;99970.78;;;15.58;100.00
47753;BME280;2038;51.728;6.674;2023-04-23T08:41:54;99973.59;;;15.66;100.00
47753;BME280;2038;51.728;6.674;2023-04-23T08:44:24;99967.97;;;15.77;100.00
47753;BME280;2038;51.728;6.674;2023-04-23T08:46:53;99970.38;;;15.73;100.00
47753;BME280;2038;51.728;6.674;2023-04-23T08:49:20;99960.38;;;15.80;100.00
47753;BME280;2038;51.728;6.674;2023-04-23T08:51:52;99965.03;;;15.92;100.00
47753;BME280;2038;51.728;6.674;2023-04-23T08:54:25;99965.19;;;15.97;100.00
47753;BME280;2038;51.728;6.674;2023-04-23T08:56:56;99964.47;;;16.02;100.00
47753;BME280;2038;51.728;6.674;2023-04-23T08:59:28;99973.53;;;16.18;100.00
47753;BME280;2038;51.728;6.674;2023-04-23T09:01:56;99973.00;;;16.28;100.00
47753;BME280;2038;51.728;6.674;2023-04-23T09:04:26;99971.56;;;16.37;100.00
47753;BME280;2038;51.728;6.674;2023-04-23T09:06:55;99968.38;;;16.46;100.00
47753;BME280;2038;51.728;6.674;2023-04-23T09:09:22;99960.38;;;16.65;100.00
47753;BME280;2038;51.728;6.674;2023-04-23T09:11:49;99960.78;;;16.79;100.00
47753;BME280;2038;51.728;6.674;2023-04-23T09:14:15;99954.91;;;16.83;100.00
47753;BME280;2038;51.728;6.674;2023-04-23T09:16:42;99961.81;;;16.85;100.00
47753;BME280;2038;51.728;6.674;2023-04-23T09:19:10;99953.69;;;17.02;100.00
47753;BME280;2038;51.728;6.674;2023-04-23T09:21:38;99946.84;;;17.02;100.00
47753;BME280;2038;51.728;6.674;2023-04-23T09:24:07;99963.28;;;17.07;100.00
47753;BME280;2038;51.728;6.674;2023-04-23T09:26:42;99955.69;;;17.12;97.67
47753;BME280;2038;51.728;6.674;2023-04-23T09:29:23;99950.03;;;17.26;99.58
47753;BME280;2038;51.728;6.674;2023-04-23T09:31:54;99950.44;;;17.42;98.53
47753;BME280;2038;51.728;6.674;2023-04-23T09:34:27;99947.16;;;17.47;96.97
47753;BME280;2038;51.728;6.674;2023-04-23T09:36:54;99956.47;;;17.42;96.98
47753;BME280;2038;51.728;6.674;2023-04-23T09:39:23;99946.09;;;17.39;96.57
47753;BME280;2038;51.728;6.674;2023-04-23T09:41:52;99949.28;;;17.30;96.06
47753;BME280;2038;51.728;6.674;2023-04-23T09:44:20;99937.47;;;17.39;97.08
47753;BME280;2038;51.728;6.674;2023-04-23T09:46:51;99945.09;;;17.34;98.71
47753;BME280;2038;51.728;6.674;2023-04-23T09:49:18;99941.88;;;17.43;96.73
47753;BME280;2038;51.728;6.674;2023-04-23T09:51:46;99939.00;;;17.63;96.55
47753;BME280;2038;51.728;6.674;2023-04-23T09:54:19;99933.78;;;17.60;96.40
47753;BME280;2038;51.728;6.674;2023-04-23T09:56:51;99948.59;;;17.69;93.77
47753;BME280;2038;51.728;6.674;2023-04-23T09:59:26;99930.69;;;17.75;92.23
47753;BME280;2038;51.728;6.674;2023-04-23T10:01:54;99948.72;;;17.75;91.07
47753;BME280;2038;51.728;6.674;2023-04-23T10:04:22;99942.50;;;18.03;91.53
47753;BME280;2038;51.728;6.674;2023-04-23T10:06:57;99941.72;;;18.05;91.51
47753;BME280;2038;51.728;6.674;2023-04-23T10:09:25;99946.09;;;18.11;92.35
47753;BME280;2038;51.728;6.674;2023-04-23T10:11:58;99934.97;;;18.12;91.94
47753;BME280;2038;51.728;6.674;2023-04-23T10:14:27;99935.03;;;18.15;93.40
47753;BME280;2038;51.728;6.674;2023-04-23T10:16:59;99937.59;;;18.15;90.15
47753;BME280;2038;51.728;6.674;2023-04-23T10:19:27;99941.88;;;18.14;90.33
47753;BME280;2038;51.728;6.674;2023-04-23T10:21:56;99933.75;;;18.35;93.74
47753;BME280;2038;51.728;6.674;2023-04-23T10:24:28;99939.16;;;18.47;90.82
47753;BME280;2038;51.728;6.674;2023-04-23T10:26:58;99942.50;;;18.43;89.23
47753;BME280;2038;51.728;6.674;2023-04-23T10:29:32;99930.59;;;18.50;90.66
47753;BME280;2038;51.728;6.674;2023-04-23T10:32:02;99928.28;;;18.62;90.02
47753;BME280;2038;51.728;6.674;2023-04-23T10:34:30;99927.41;;;18.60;89.28
47753;BME280;2038;51.728;6.674;2023-04-23T10:36:59;99922.97;;;18.54;86.71
47753;BME280;2038;51.728;6.674;2023-04-23T10:39:32;99923.72;;;18.49;85.60
47753;BME280;2038;51.728;6.674;2023-04-23T10:42:01;99918.41;;;18.43;85.20
47753;BME280;2038;51.728;6.674;2023-04-23T10:44:33;99911.66;;;18.48;85.22
47753;BME280;2038;51.728;6.674;2023-04-23T10:47:02;99904.78;;;18.50;87.42
47753;BME280;2038;51.728;6.674;2023-04-23T10:49:31;99902.34;;;18.53;86.83
47753;BME280;2038;51.728;6.674;2023-04-23T10:52:01;99897.16;;;18.53;86.00
47753;BME280;2038;51.728;6.674;2023-04-23T10:54:30;99897.16;;;18.53;87.08
47753;BME280;2038;51.728;6.674;2023-04-23T10:57:05;99897.94;;;18.50;85.83
47753;BME280;2038;51.728;6.674;2023-04-23T10:59:33;99897.06;;;18.50;86.11
47753;BME280;2038;51.728;6.674;2023-04-23T11:02:07;99897.91;;;18.49;86.92
47753;BME280;2038;51.728;6.674;2023-04-23T11:04:40;99894.41;;;18.45;84.96
47753;BME280;2038;51.728;6.674;2023-04-23T11:07:11;99890.19;;;18.50;84.67
47753;BME280;2038;51.728;6.674;2023-04-23T11:09:42;99896.47;;;18.61;84.52
47753;BME280;2038;51.728;6.674;2023-04-23T11:14:53;99875.09;;;18.68;80.53
47753;BME280;2038;51.728;6.674;2023-04-23T11:20:10;99875.47;;;18.88;82.88
47753;BME280;2038;51.728;6.674;2023-04-23T11:22:51;99874.63;;;18.91;79.60
47753;BME280;2038;51.728;6.674;2023-04-23T11:25:27;99870.25;;;18.87;78.85
47753;BME280;2038;51.728;6.674;2023-04-23T11:27:56;99865.97;;;18.87;80.14
47753;BME280;2038;51.728;6.674;2023-04-23T11:30:28;99863.44;;;18.89;80.87
47753;BME280;2038;51.728;6.674;2023-04-23T11:32:56;99861.72;;;18.91;79.60
47753;BME280;2038;51.728;6.674;2023-04-23T11:35:25;99857.38;;;18.88;78.74
47753;BME280;2038;51.728;6.674;2023-04-23T11:37:55;99850.53;;;18.89;79.63
47753;BME280;2038;51.728;6.674;2023-04-23T11:40:22;99845.41;;;18.92;82.34
47753;BME280;2038;51.728;6.674;2023-04-23T11:42:51;99837.53;;;18.86;83.53
47753;BME280;2038;51.728;6.674;2023-04-23T11:45:21;99830.66;;;18.85;81.81
47753;BME280;2038;51.728;6.674;2023-04-23T11:47:52;99826.28;;;18.82;80.96
47753;BME280;2038;51.728;6.674;2023-04-23T11:50:29;99826.28;;;18.82;81.10
47753;BME280;2038;51.728;6.674;2023-04-23T11:53:04;99827.06;;;18.77;79.90
47753;BME280;2038;51.728;6.674;2023-04-23T11:55:32;99819.31;;;18.77;81.16
47753;BME280;2038;51.728;6.674;2023-04-23T11:57:58;99815.03;;;18.77;80.94
47753;BME280;2038;51.728;6.674;2023-04-23T12:00:25;99824.56;;;18.81;80.34
47753;BME280;2038;51.728;6.674;2023-04-23T12:02:56;99820.28;;;18.83;81.37
47753;BME280;2038;51.728;6.674;2023-04-23T12:05:29;99810.91;;;18.88;81.67
47753;BME280;2038;51.728;6.674;2023-04-23T12:08:10;99802.47;;;18.98;81.38
47753;BME280;2038;51.728;6.674;2023-04-23T12:10:46;99804.38;;;19.10;82.47
47753;BME280;2038;51.728;6.674;2023-04-23T12:13:44;99801.91;;;19.16;81.57
47753;BME280;2038;51.728;6.674;2023-04-23T12:16:10;99787.53;;;19.33;80.74
47753;BME280;2038;51.728;6.674;2023-04-23T12:18:41;99785.13;;;19.44;82.18
47753;BME280;2038;51.728;6.674;2023-04-23T12:21:12;99786.22;;;19.59;80.15
47753;BME280;2038;51.728;6.674;2023-04-23T12:23:41;99779.44;;;19.71;79.47
47753;BME280;2038;51.728;6.674;2023-04-23T12:26:13;99775.25;;;19.79;80.64
47753;BME280;2038;51.728;6.674;2023-04-23T12:28:53;99771.91;;;19.86;79.86
47753;BME280;2038;51.728;6.674;2023-04-23T12:31:28;99772.03;;;19.96;78.78
47753;BME280;2038;51.728;6.674;2023-04-23T12:34:04;99766.09;;;20.02;78.11
47753;BME280;2038;51.728;6.674;2023-04-23T12:36:33;99762.41;;;19.86;76.98
47753;BME280;2038;51.728;6.674;2023-04-23T12:42:06;99757.34;;;19.94;78.60
47753;BME280;2038;51.728;6.674;2023-04-23T12:44:38;99760.94;;;20.05;75.78
47753;BME280;2038;51.728;6.674;2023-04-23T12:47:06;99745.50;;;20.16;75.62
47753;BME280;2038;51.728;6.674;2023-04-23T12:49:35;99754.19;;;20.21;75.86
47753;BME280;2038;51.728;6.674;2023-04-23T12:52:05;99747.38;;;20.27;75.97
47753;BME280;2038;51.728;6.674;2023-04-23T12:54:36;99749.78;;;20.12;75.65
47753;BME280;2038;51.728;6.674;2023-04-23T12:57:08;99750.53;;;20.00;74.00
47753;BME280;2038;51.728;6.674;2023-04-23T12:59:36;99741.69;;;19.83;75.03
47753;BME280;2038;51.728;6.674;2023-04-23T13:02:04;99743.31;;;19.74;74.84
47753;BME280;2038;51.728;6.674;2023-04-23T13:04:32;99743.16;;;19.61;74.13
47753;BME280;2038;51.728;6.674;2023-04-23T13:07:00;99733.66;;;19.60;74.69
47753;BME280;2038;51.728;6.674;2023-04-23T13:09:27;99729.41;;;19.64;76.12
47753;BME280;2038;51.728;6.674;2023-04-23T13:11:54;99719.06;;;19.64;78.46